createdAt,value
2022-12-14T00:01:45.139Z,73.30
2022-12-14T00:04:17.462Z,73.30
2022-12-14T00:06:44.397Z,73.40
2022-12-14T00:09:11.482Z,74.10
2022-12-14T00:11:38.391Z,73.40
2022-12-14T00:14:06.204Z,73.60
2022-12-14T00:16:35.174Z,73.80
2022-12-14T00:19:02.954Z,74.00
2022-12-14T00:21:29.862Z,74.10
2022-12-14T00:23:59.503Z,74.10
2022-12-14T00:26:31.043Z,74.10
2022-12-14T00:29:00.584Z,74.10
2022-12-14T00:31:28.124Z,74.70
2022-12-14T00:33:55.523Z,74.00
2022-12-14T00:36:22.928Z,74.00
2022-12-14T00:38:49.815Z,74.00
2022-12-14T00:41:16.712Z,74.00
2022-12-14T00:43:44.242Z,74.00
2022-12-14T00:46:11.427Z,73.90
2022-12-14T00:48:38.564Z,73.90
2022-12-14T00:51:06.040Z,73.80
2022-12-14T00:53:32.968Z,73.80
2022-12-14T00:56:08.750Z,73.80
2022-12-14T00:58:36.047Z,73.60
2022-12-14T01:01:12.343Z,73.70
2022-12-14T01:03:39.571Z,73.60
2022-12-14T01:06:06.811Z,73.50
2022-12-14T01:08:36.637Z,73.50
2022-12-14T01:11:08.609Z,73.50
2022-12-14T01:13:37.542Z,73.50
2022-12-14T01:16:11.636Z,73.50
2022-12-14T01:18:40.350Z,73.50
2022-12-14T01:21:19.490Z,73.50
2022-12-14T01:23:48.650Z,73.50
2022-12-14T01:26:17.387Z,73.50
2022-12-14T01:28:46.234Z,73.50
2022-12-14T01:31:17.259Z,73.50
2022-12-14T01:33:45.161Z,73.60
2022-12-14T01:36:19.072Z,73.60
2022-12-14T01:38:47.602Z,73.60
2022-12-14T01:41:29.962Z,73.60
2022-12-14T01:44:02.033Z,73.60
2022-12-14T01:46:34.150Z,73.60
2022-12-14T01:49:13.464Z,73.60
2022-12-14T01:51:48.754Z,73.70
2022-12-14T01:54:16.702Z,73.70
2022-12-14T01:56:45.804Z,73.80
2022-12-14T01:59:23.603Z,73.80
2022-12-14T02:01:52.290Z,73.80
2022-12-14T02:04:20.127Z,73.90
2022-12-14T02:06:49.370Z,74.00
2022-12-14T02:09:21.951Z,74.10
2022-12-14T02:11:58.682Z,74.20
2022-12-14T02:14:26.703Z,74.30
2022-12-14T02:16:56.106Z,74.40
2022-12-14T02:19:23.649Z,74.40
2022-12-14T02:22:34.536Z,74.40
2022-12-14T02:25:31.693Z,74.40
2022-12-14T02:28:53.173Z,74.50
2022-12-14T02:31:45.026Z,74.70
2022-12-14T02:34:45.520Z,74.80
2022-12-14T02:37:39.129Z,74.90
2022-12-14T02:40:34.369Z,75.00
2022-12-14T02:43:30.755Z,75.10
2022-12-14T02:46:45.068Z,75.20
2022-12-14T02:49:32.846Z,75.20
2022-12-14T02:52:29.430Z,75.20
2022-12-14T02:55:17.790Z,75.10
2022-12-14T02:58:01.418Z,75.20
2022-12-14T03:00:33.803Z,75.20
2022-12-14T03:03:01.778Z,75.30
2022-12-14T03:05:29.622Z,75.40
2022-12-14T03:08:14.548Z,75.50
2022-12-14T03:10:51.643Z,75.50
2022-12-14T03:13:37.439Z,75.40
2022-12-14T03:16:22.931Z,75.20
2022-12-14T03:19:42.700Z,75.20
2022-12-14T03:22:30.253Z,75.10
2022-12-14T03:25:27.051Z,75.00
2022-12-14T03:28:12.243Z,75.00
2022-12-14T03:31:00.319Z,74.90
2022-12-14T03:33:30.731Z,74.70
2022-12-14T03:36:16.463Z,74.60
2022-12-14T03:38:48.139Z,74.50
2022-12-14T03:41:54.866Z,74.50
2022-12-14T03:44:48.769Z,74.40
2022-12-14T03:47:33.518Z,74.30
2022-12-14T03:50:06.883Z,74.30
2022-12-14T03:52:50.198Z,74.30
2022-12-14T03:55:40.910Z,74.40
2022-12-14T03:58:27.783Z,74.40
2022-12-14T04:01:21.584Z,74.50
2022-12-14T04:04:04.043Z,74.50
2022-12-14T04:06:45.679Z,74.50
2022-12-14T04:09:52.313Z,74.50
2022-12-14T04:12:56.840Z,74.60
2022-12-14T04:15:48.981Z,74.80
2022-12-14T04:18:59.262Z,75.00
2022-12-14T04:21:36.685Z,75.00
2022-12-14T04:24:43.541Z,75.10
2022-12-14T04:27:36.607Z,75.30
2022-12-14T04:30:06.261Z,75.30
2022-12-14T04:33:26.541Z,75.40
2022-12-14T04:35:57.376Z,75.50
2022-12-14T04:38:35.212Z,75.40
2022-12-14T04:41:09.363Z,75.40
2022-12-14T04:43:41.827Z,75.40
2022-12-14T04:46:13.900Z,75.20
2022-12-14T04:48:48.233Z,75.10
2022-12-14T04:52:04.824Z,74.90
2022-12-14T04:54:53.587Z,74.60
2022-12-14T04:58:18.510Z,74.50
2022-12-14T05:01:22.648Z,74.30
2022-12-14T05:04:08.166Z,74.10
2022-12-14T05:06:44.846Z,74.10
2022-12-14T05:09:44.086Z,73.90
2022-12-14T05:12:22.930Z,73.80
2022-12-14T05:14:59.881Z,73.80
2022-12-14T05:17:27.937Z,73.80
2022-12-14T05:19:54.897Z,73.80
2022-12-14T05:22:22.227Z,73.70
2022-12-14T05:24:49.139Z,73.80
2022-12-14T05:27:16.520Z,73.90
2022-12-14T05:29:43.555Z,73.90
2022-12-14T05:32:13.508Z,73.90
2022-12-14T05:34:40.706Z,74.00
2022-12-14T05:37:09.571Z,74.10
2022-12-14T05:39:40.174Z,74.10
2022-12-14T05:42:07.274Z,74.20
2022-12-14T05:44:34.263Z,74.40
2022-12-14T05:47:01.305Z,74.60
2022-12-14T05:49:28.200Z,74.60
2022-12-14T05:51:55.409Z,74.70
2022-12-14T05:54:22.322Z,74.80
2022-12-14T05:56:49.499Z,74.70
2022-12-14T05:59:17.557Z,74.70
2022-12-14T06:01:45.637Z,74.50
2022-12-14T06:04:18.836Z,74.50
2022-12-14T06:06:46.121Z,74.40
2022-12-14T06:09:16.001Z,74.20
2022-12-14T06:11:44.583Z,74.00
2022-12-14T06:14:13.371Z,74.10
2022-12-14T06:16:43.274Z,73.80
2022-12-14T06:19:11.543Z,73.70
2022-12-14T06:21:40.820Z,73.70
2022-12-14T06:24:09.851Z,73.60
2022-12-14T06:26:37.398Z,73.70
2022-12-14T06:29:04.843Z,73.80
2022-12-14T06:31:33.132Z,73.70
2022-12-14T06:34:03.046Z,73.70
2022-12-14T06:36:33.195Z,73.70
2022-12-14T06:39:04.742Z,73.60
2022-12-14T06:41:32.073Z,73.60
2022-12-14T06:44:08.221Z,73.70
2022-12-14T06:46:36.538Z,73.70
2022-12-14T06:49:05.832Z,73.80
2022-12-14T06:51:37.779Z,74.00
2022-12-14T06:54:04.795Z,74.00
2022-12-14T06:56:32.134Z,74.10
2022-12-14T06:58:59.466Z,74.10
2022-12-14T07:01:26.770Z,74.10
2022-12-14T07:03:56.528Z,74.10
2022-12-14T07:06:26.001Z,74.20
2022-12-14T07:08:55.872Z,74.20
2022-12-14T07:11:23.569Z,74.20
2022-12-14T07:13:50.586Z,74.30
2022-12-14T07:16:23.873Z,74.40
2022-12-14T07:18:52.301Z,74.50
2022-12-14T07:21:20.904Z,74.50
2022-12-14T07:23:49.196Z,74.50
2022-12-14T07:26:26.443Z,74.50
2022-12-14T07:28:55.106Z,74.50
2022-12-14T07:31:28.555Z,74.60
2022-12-14T07:33:58.301Z,74.60
2022-12-14T07:36:28.012Z,74.70
2022-12-14T07:38:56.099Z,74.70
2022-12-14T07:41:30.685Z,74.70
2022-12-14T07:44:00.655Z,74.70
2022-12-14T07:46:29.626Z,74.80
2022-12-14T07:48:59.054Z,74.90
2022-12-14T07:51:29.669Z,74.90
2022-12-14T07:53:57.254Z,74.90
2022-12-14T07:56:38.019Z,74.90
2022-12-14T07:59:08.588Z,74.90
2022-12-14T08:01:37.501Z,75.00
2022-12-14T08:04:11.892Z,75.00
2022-12-14T08:06:40.607Z,75.00
2022-12-14T08:09:10.563Z,75.10
2022-12-14T08:11:39.139Z,75.20
2022-12-14T08:14:18.753Z,75.30
2022-12-14T08:16:47.316Z,75.40
2022-12-14T08:19:15.011Z,75.60
2022-12-14T08:21:42.253Z,75.70
2022-12-14T08:24:12.215Z,75.80
2022-12-14T08:26:39.566Z,76.10
2022-12-14T08:29:06.753Z,76.20
2022-12-14T08:31:34.422Z,77.00
2022-12-14T08:34:02.185Z,77.90
2022-12-14T08:36:34.419Z,79.10
2022-12-14T08:39:07.912Z,80.10
2022-12-14T08:41:35.548Z,80.40
2022-12-14T08:44:04.642Z,80.50
2022-12-14T08:46:34.334Z,80.00
2022-12-14T08:49:01.562Z,79.30
2022-12-14T08:51:29.561Z,78.70
2022-12-14T08:53:57.341Z,78.20
2022-12-14T08:56:27.271Z,77.30
2022-12-14T08:58:54.636Z,76.10
2022-12-14T09:01:33.408Z,75.60
2022-12-14T09:04:08.268Z,74.60
2022-12-14T09:06:38.942Z,73.10
2022-12-14T09:09:13.608Z,71.60
2022-12-14T09:11:42.882Z,70.00
2022-12-14T09:14:10.912Z,68.70
2022-12-14T09:16:38.100Z,67.10
2022-12-14T09:19:05.387Z,65.30
2022-12-14T09:21:32.488Z,64.00
2022-12-14T09:24:00.166Z,62.60
2022-12-14T09:26:28.003Z,61.40
2022-12-14T09:28:58.100Z,60.80
2022-12-14T09:31:27.759Z,60.00
2022-12-14T09:33:55.358Z,59.20
2022-12-14T09:36:27.540Z,58.40
2022-12-14T09:38:56.528Z,57.70
2022-12-14T09:41:35.569Z,57.30
2022-12-14T09:44:18.857Z,57.00
2022-12-14T09:47:10.812Z,56.70
2022-12-14T09:49:44.929Z,56.50
2022-12-14T09:52:40.255Z,56.60
2022-12-14T09:55:34.957Z,56.20
2022-12-14T09:58:09.956Z,55.40
2022-12-14T10:00:52.909Z,55.40
2022-12-14T10:04:10.835Z,54.40
2022-12-14T10:07:11.657Z,53.10
2022-12-14T10:10:02.248Z,52.90
2022-12-14T10:13:20.774Z,52.60
2022-12-14T10:16:15.286Z,52.20
2022-12-14T10:19:07.252Z,52.30
2022-12-14T10:21:47.398Z,52.20
2022-12-14T10:24:22.479Z,52.20
2022-12-14T10:26:55.201Z,52.10
2022-12-14T10:29:37.261Z,51.80
2022-12-14T10:32:19.476Z,51.40
2022-12-14T10:34:46.671Z,51.80
2022-12-14T10:37:35.129Z,51.60
2022-12-14T10:40:33.156Z,50.80
2022-12-14T10:43:25.963Z,50.40
2022-12-14T10:46:10.133Z,49.60
2022-12-14T10:48:57.166Z,49.80
2022-12-14T10:51:47.887Z,50.40
2022-12-14T10:54:39.306Z,49.80
2022-12-14T10:57:06.457Z,49.90
2022-12-14T10:59:44.700Z,50.30
2022-12-14T11:02:23.135Z,50.00
2022-12-14T11:05:03.840Z,50.10
2022-12-14T11:07:33.841Z,49.90
2022-12-14T11:10:19.228Z,50.10
2022-12-14T11:13:05.490Z,50.00
2022-12-14T11:15:43.248Z,50.70
2022-12-14T11:18:16.557Z,50.40
2022-12-14T11:20:55.547Z,51.10
2022-12-14T11:23:27.672Z,51.90
2022-12-14T11:25:59.234Z,52.60
2022-12-14T11:28:49.960Z,53.00
2022-12-14T11:31:39.009Z,53.40
2022-12-14T11:34:22.131Z,53.20
2022-12-14T11:36:50.171Z,53.30
2022-12-14T11:39:24.666Z,52.60
2022-12-14T11:42:04.501Z,52.10
2022-12-14T11:44:37.661Z,50.80
2022-12-14T11:47:15.827Z,49.70
2022-12-14T11:49:45.915Z,48.90
2022-12-14T11:52:25.396Z,49.10
2022-12-14T11:54:52.377Z,48.30
2022-12-14T11:57:34.532Z,47.90
2022-12-14T12:00:06.948Z,47.60
2022-12-14T12:02:38.289Z,47.30
2022-12-14T12:05:14.758Z,47.50
2022-12-14T12:08:02.856Z,47.50
2022-12-14T12:10:45.074Z,47.60
2022-12-14T12:13:38.694Z,47.40
2022-12-14T12:16:22.867Z,48.30
2022-12-14T12:19:15.654Z,49.20
2022-12-14T12:21:45.191Z,49.90
2022-12-14T12:25:24.245Z,50.20
2022-12-14T12:27:45.216Z,49.30
2022-12-14T12:30:28.634Z,49.90
2022-12-14T12:33:05.469Z,49.70
2022-12-14T12:35:49.556Z,50.20
2022-12-14T12:38:55.202Z,50.20
2022-12-14T12:42:05.196Z,50.00
2022-12-14T12:44:49.548Z,50.10
2022-12-14T12:47:41.553Z,49.90
2022-12-14T12:50:37.047Z,49.80
2022-12-14T12:53:15.065Z,49.50
2022-12-14T12:55:50.174Z,49.40
2022-12-14T12:58:29.297Z,49.30
2022-12-14T13:01:02.073Z,49.40
2022-12-14T13:03:40.184Z,49.40
2022-12-14T13:06:31.428Z,49.80
2022-12-14T13:09:17.819Z,50.40
2022-12-14T13:11:46.039Z,50.90
2022-12-14T13:14:36.076Z,51.10
2022-12-14T13:17:06.709Z,51.00
2022-12-14T13:19:52.080Z,51.00
2022-12-14T13:22:31.274Z,51.10
2022-12-14T13:25:06.486Z,51.30
2022-12-14T13:27:58.372Z,51.50
2022-12-14T13:30:42.707Z,52.00
2022-12-14T13:33:53.710Z,52.20
2022-12-14T13:36:55.231Z,52.80
2022-12-14T13:39:50.575Z,53.20
2022-12-14T13:42:51.914Z,53.40
2022-12-14T13:45:27.470Z,54.10
2022-12-14T13:47:57.157Z,54.30
2022-12-14T13:50:51.245Z,54.80
2022-12-14T13:53:37.271Z,55.20
2022-12-14T13:56:05.186Z,55.50
2022-12-14T13:58:44.940Z,55.80
2022-12-14T14:01:48.406Z,56.40
2022-12-14T14:04:25.808Z,56.60
2022-12-14T14:06:56.635Z,57.00
2022-12-14T14:09:26.571Z,57.20
2022-12-14T14:12:24.192Z,57.60
2022-12-14T14:15:08.233Z,57.90
2022-12-14T14:17:41.576Z,58.10
2022-12-14T14:20:47.397Z,58.40
2022-12-14T14:23:14.291Z,58.80
2022-12-14T14:25:49.847Z,58.80
2022-12-14T14:28:22.980Z,59.10
2022-12-14T14:30:52.484Z,59.30
2022-12-14T14:33:46.521Z,59.50
2022-12-14T14:36:30.871Z,59.90
2022-12-14T14:39:01.604Z,60.00
2022-12-14T14:41:40.693Z,60.10
2022-12-14T14:45:00.012Z,60.40
2022-12-14T14:47:39.529Z,60.70
2022-12-14T14:50:24.670Z,60.70
2022-12-14T14:53:32.851Z,61.00
2022-12-14T14:56:29.252Z,61.20
2022-12-14T14:59:18.093Z,61.10
2022-12-14T15:01:58.125Z,61.40
2022-12-14T15:04:51.627Z,61.60
2022-12-14T15:07:27.746Z,61.80
2022-12-14T15:10:20.720Z,61.90
2022-12-14T15:13:01.939Z,62.90
2022-12-14T15:15:40.394Z,62.30
2022-12-14T15:18:31.557Z,62.40
2022-12-14T15:21:16.132Z,62.90
2022-12-14T15:23:50.528Z,62.90
2022-12-14T15:26:27.372Z,63.00
2022-12-14T15:29:00.551Z,63.30
2022-12-14T15:31:40.366Z,64.20
2022-12-14T15:34:15.417Z,63.80
2022-12-14T15:36:43.154Z,64.00
2022-12-14T15:39:40.008Z,64.30
2022-12-14T15:42:11.690Z,64.70
2022-12-14T15:44:43.699Z,64.70
2022-12-14T15:47:27.855Z,64.30
2022-12-14T15:50:00.464Z,64.90
2022-12-14T15:52:31.158Z,65.00
2022-12-14T15:54:59.485Z,65.30
2022-12-14T15:57:26.740Z,65.60
2022-12-14T15:59:57.427Z,65.90
2022-12-14T16:02:38.198Z,66.00
2022-12-14T16:05:06.438Z,66.30
2022-12-14T16:07:39.362Z,66.40
2022-12-14T16:10:32.965Z,66.60
2022-12-14T16:13:33.469Z,66.90
2022-12-14T16:16:11.736Z,67.00
2022-12-14T16:18:50.785Z,67.00
2022-12-14T16:21:35.292Z,67.20
2022-12-14T16:24:24.228Z,67.40
2022-12-14T16:27:00.723Z,67.40
2022-12-14T16:29:33.665Z,67.50
2022-12-14T16:32:07.109Z,67.50
2022-12-14T16:34:34.523Z,67.70
2022-12-14T16:37:34.740Z,67.70
2022-12-14T16:39:52.476Z,67.80
2022-12-14T16:42:25.842Z,67.90
2022-12-14T16:44:54.404Z,68.00
2022-12-14T16:47:21.530Z,68.00
2022-12-14T16:49:51.959Z,68.10
2022-12-14T16:52:35.506Z,68.30
2022-12-14T16:55:18.604Z,68.50
2022-12-14T16:57:48.626Z,68.70
2022-12-14T17:00:36.170Z,68.70
2022-12-14T17:03:09.124Z,69.00
2022-12-14T17:05:40.369Z,69.00
2022-12-14T17:08:08.626Z,69.20
2022-12-14T17:10:37.408Z,69.50
2022-12-14T17:13:04.521Z,69.50
2022-12-14T17:15:34.449Z,69.80
2022-12-14T17:18:04.713Z,69.70
2022-12-14T17:20:39.566Z,69.80
2022-12-14T17:23:10.299Z,69.90
2022-12-14T17:25:37.353Z,69.80
2022-12-14T17:28:21.707Z,69.90
2022-12-14T17:30:50.521Z,70.00
2022-12-14T17:33:17.875Z,70.10
2022-12-14T17:35:44.916Z,70.10
2022-12-14T17:38:16.516Z,70.20
2022-12-14T17:40:45.628Z,70.30
2022-12-14T17:43:21.005Z,70.30
2022-12-14T17:45:48.332Z,70.40
2022-12-14T17:48:17.436Z,70.50
2022-12-14T17:50:48.411Z,70.60
2022-12-14T17:53:26.416Z,70.70
2022-12-14T17:55:53.532Z,70.80
2022-12-14T17:58:20.472Z,70.90
2022-12-14T18:01:03.656Z,71.00
2022-12-14T18:03:36.521Z,71.10
2022-12-14T18:06:04.726Z,71.20
2022-12-14T18:08:31.903Z,71.10
2022-12-14T18:11:02.986Z,71.10
2022-12-14T18:13:33.141Z,71.10
2022-12-14T18:16:00.995Z,71.10
2022-12-14T18:18:29.394Z,71.10
2022-12-14T18:21:02.684Z,71.10
2022-12-14T18:23:31.909Z,71.40
2022-12-14T18:26:00.663Z,71.20
2022-12-14T18:28:27.643Z,71.20
2022-12-14T18:31:01.745Z,71.30
2022-12-14T18:33:29.670Z,71.50
2022-12-14T18:35:57.541Z,71.40
2022-12-14T18:38:25.863Z,71.40
2022-12-14T18:40:56.227Z,71.40
2022-12-14T18:43:28.484Z,71.50
2022-12-14T18:45:56.716Z,71.40
2022-12-14T18:48:25.194Z,71.40
2022-12-14T18:50:54.604Z,71.50
2022-12-14T18:53:24.413Z,71.60
2022-12-14T18:55:52.612Z,71.60
2022-12-14T18:58:24.425Z,71.70
2022-12-14T19:00:55.211Z,71.80
2022-12-14T19:03:24.182Z,71.80
2022-12-14T19:05:51.655Z,71.90
2022-12-14T19:08:19.683Z,71.70
2022-12-14T19:10:48.577Z,71.80
2022-12-14T19:13:25.733Z,71.80
2022-12-14T19:15:54.200Z,71.80
2022-12-14T19:18:21.614Z,71.90
2022-12-14T19:20:49.463Z,71.90
2022-12-14T19:23:19.865Z,72.00
2022-12-14T19:25:47.536Z,72.00
2022-12-14T19:28:31.283Z,72.10
2022-12-14T19:31:00.426Z,72.20
2022-12-14T19:33:28.625Z,72.30
2022-12-14T19:35:56.206Z,72.30
2022-12-14T19:38:23.165Z,72.30
2022-12-14T19:41:05.105Z,72.50
2022-12-14T19:43:32.727Z,72.60
2022-12-14T19:46:00.226Z,72.60
2022-12-14T19:48:27.247Z,72.70
2022-12-14T19:50:54.293Z,72.60
2022-12-14T19:53:23.703Z,72.60
2022-12-14T19:55:53.997Z,72.60
2022-12-14T19:58:25.499Z,72.60
2022-12-14T20:00:52.766Z,72.70
2022-12-14T20:03:20.047Z,72.70
2022-12-14T20:05:59.318Z,72.60
2022-12-14T20:08:29.398Z,72.50
2022-12-14T20:10:57.511Z,72.50
2022-12-14T20:13:26.661Z,72.40
2022-12-14T20:15:59.660Z,72.40
2022-12-14T20:18:28.430Z,72.30
2022-12-14T20:21:08.072Z,72.20
2022-12-14T20:23:37.317Z,72.20
2022-12-14T20:26:12.963Z,72.20
2022-12-14T20:28:40.869Z,72.10
2022-12-14T20:31:10.172Z,72.10
2022-12-14T20:33:38.389Z,72.10
2022-12-14T20:36:06.573Z,72.10
2022-12-14T20:38:34.065Z,72.10
2022-12-14T20:41:10.592Z,72.00
2022-12-14T20:43:40.502Z,72.10
2022-12-14T20:46:30.772Z,72.00
2022-12-14T20:49:01.446Z,72.70
2022-12-14T20:51:30.495Z,72.00
2022-12-14T20:53:57.943Z,72.00
2022-12-14T20:56:25.457Z,72.00
2022-12-14T20:58:52.723Z,72.00
2022-12-14T21:01:21.594Z,71.90
2022-12-14T21:03:50.252Z,71.90
2022-12-14T21:06:22.605Z,71.90
2022-12-14T21:09:04.994Z,71.80
2022-12-14T21:12:02.400Z,71.80
2022-12-14T21:14:36.250Z,71.80
2022-12-14T21:17:04.021Z,71.60
2022-12-14T21:19:32.919Z,71.70
2022-12-14T21:21:59.929Z,71.60
2022-12-14T21:27:23.783Z,71.60
2022-12-14T21:29:52.288Z,71.60
2022-12-14T21:32:20.756Z,71.50
2022-12-14T21:34:48.416Z,71.60
2022-12-14T21:37:15.983Z,71.60
2022-12-14T21:39:47.590Z,71.70
2022-12-14T21:42:20.964Z,71.80
2022-12-14T21:44:50.739Z,71.70
2022-12-14T21:47:29.451Z,71.80
2022-12-14T21:49:57.313Z,71.80
2022-12-14T21:52:27.093Z,71.80
2022-12-14T21:54:54.490Z,71.80
2022-12-14T21:57:49.484Z,71.80
2022-12-14T22:00:19.167Z,71.70
2022-12-14T22:02:46.333Z,72.40
2022-12-14T22:05:13.401Z,71.70
2022-12-14T22:07:40.520Z,71.80
2022-12-14T22:10:07.825Z,71.80
2022-12-14T22:12:34.894Z,71.90
2022-12-14T22:15:02.044Z,71.90
2022-12-14T22:17:28.949Z,72.10
2022-12-14T22:19:56.169Z,72.10
2022-12-14T22:22:23.361Z,72.00
2022-12-14T22:24:51.231Z,72.00
2022-12-14T22:27:19.916Z,71.90
2022-12-14T22:29:47.418Z,71.90
2022-12-14T22:32:15.999Z,71.90
2022-12-14T22:34:43.275Z,71.90
2022-12-14T22:37:13.557Z,71.90
2022-12-14T22:39:40.713Z,71.80
2022-12-14T22:42:07.677Z,71.80
2022-12-14T22:44:34.837Z,71.80
2022-12-14T22:47:02.247Z,71.80
2022-12-14T22:49:29.262Z,71.70
2022-12-14T22:51:56.494Z,71.70
2022-12-14T22:54:27.716Z,71.60
2022-12-14T22:57:05.133Z,71.60
2022-12-14T22:59:45.174Z,71.50
2022-12-14T23:02:12.840Z,71.60
2022-12-14T23:04:40.168Z,71.70
2022-12-14T23:07:07.295Z,71.80
2022-12-14T23:09:53.152Z,71.70
2022-12-14T23:12:38.881Z,71.80
2022-12-14T23:15:24.765Z,71.80
2022-12-14T23:21:18.257Z,71.90
2022-12-14T23:24:04.767Z,71.90
2022-12-14T23:26:51.647Z,71.90
2022-12-14T23:29:37.581Z,71.80
2022-12-14T23:32:23.548Z,71.70
2022-12-14T23:35:09.095Z,71.80
2022-12-14T23:37:55.026Z,71.80
2022-12-14T23:40:40.377Z,72.10
2022-12-14T23:43:36.609Z,72.00
2022-12-14T23:46:24.459Z,72.10
2022-12-14T23:49:15.350Z,72.10
2022-12-14T23:52:02.011Z,72.70
2022-12-14T23:54:47.940Z,71.90
2022-12-14T23:57:34.069Z,71.90
